Time;durP1;ratioP1;P1;durP2;ratioP2;P2;SDS_P1;SDS_P2;PMS_P1;PMS_P2;Temp;Humidity;BMP_temperature;BMP_pressure;BME280_temperature;BME280_humidity;BME280_pressure;Samples;Min_cycle;Max_cycle;Signal;HPM_P1;HPM_P2
2024/03/09 00:00:57;;;;;;;4.13;0.75;;;25.30;48.20;;;;;;5110267;28;20068;-53
2024/03/09 00:03:25;;;;;;;2.78;0.80;;;25.40;48.30;;;;;;5107074;28;20103;-58
2024/03/09 00:05:52;;;;;;;6.63;0.98;;;25.50;47.90;;;;;;5110025;28;20096;-56
2024/03/09 00:08:19;;;;;;;3.47;1.00;;;25.30;47.40;;;;;;5109017;28;20104;-55
2024/03/09 00:10:49;;;;;;;1.05;0.85;;;25.20;47.50;;;;;;5108813;28;20072;-53
2024/03/09 00:13:15;;;;;;;9.43;2.97;;;25.10;47.80;;;;;;5109763;28;20134;-53
2024/03/09 00:15:42;;;;;;;4.93;0.98;;;25.00;47.80;;;;;;5110780;28;20076;-54
2024/03/09 00:18:08;;;;;;;5.38;1.52;;;24.90;48.60;;;;;;5110579;28;20068;-54
2024/03/09 00:20:36;;;;;;;3.60;0.90;;;24.90;48.50;;;;;;5106799;28;20111;-55
2024/03/09 00:23:03;;;;;;;3.13;0.70;;;24.90;48.80;;;;;;5098681;28;20068;-54
2024/03/09 00:25:30;;;;;;;6.43;1.00;;;24.80;48.30;;;;;;5109449;28;20100;-60
2024/03/09 00:27:57;;;;;;;2.90;0.75;;;24.80;48.10;;;;;;5108370;28;20088;-58
2024/03/09 00:30:29;;;;;;;5.60;1.15;;;24.70;47.70;;;;;;5106974;28;20072;-55
2024/03/09 00:32:59;;;;;;;9.23;1.95;;;24.60;47.80;;;;;;5104849;28;20064;-55
2024/03/09 00:35:29;;;;;;;1.83;0.90;;;24.30;47.70;;;;;;5117489;28;20106;-59
2024/03/09 00:37:57;;;;;;;3.35;0.70;;;24.30;48.20;;;;;;5111503;28;20060;-56
2024/03/09 00:40:26;;;;;;;6.18;0.90;;;24.20;48.00;;;;;;5101120;28;20068;-61
2024/03/09 00:42:52;;;;;;;2.88;0.73;;;24.10;48.10;;;;;;5103567;28;20187;-54
2024/03/09 00:45:19;;;;;;;2.67;0.80;;;24.10;48.30;;;;;;5103752;28;20104;-52
2024/03/09 00:47:48;;;;;;;6.68;1.00;;;24.00;48.20;;;;;;5107133;28;20173;-54
2024/03/09 00:50:16;;;;;;;5.60;0.75;;;24.00;48.80;;;;;;5103657;28;20080;-55
2024/03/09 00:52:43;;;;;;;1.75;0.90;;;24.00;48.40;;;;;;5102538;28;20103;-55
2024/03/09 00:55:16;;;;;;;1.98;0.80;;;23.90;48.60;;;;;;5109379;28;20072;-55
2024/03/09 00:57:47;;;;;;;7.00;1.23;;;23.80;49.10;;;;;;5110863;28;20151;-54
2024/03/09 01:00:18;;;;;;;4.03;1.10;;;23.70;49.00;;;;;;5106687;28;20538;-54
2024/03/09 01:02:47;;;;;;;7.57;1.00;;;23.60;49.70;;;;;;5100558;28;20088;-54
2024/03/09 01:05:26;;;;;;;4.15;0.60;;;23.60;49.10;;;;;;5106905;28;20108;-53
2024/03/09 01:07:53;;;;;;;1.73;0.70;;;23.50;48.60;;;;;;5109136;28;20103;-51
2024/03/09 01:10:19;;;;;;;5.85;1.27;;;23.40;48.20;;;;;;5093157;28;20095;-53
2024/03/09 01:12:47;;;;;;;4.57;1.00;;;23.40;49.20;;;;;;5109527;28;20205;-54
2024/03/09 01:15:13;;;;;;;2.25;0.60;;;23.30;48.50;;;;;;5093160;28;20419;-50
2024/03/09 01:17:40;;;;;;;5.50;1.00;;;23.10;49.30;;;;;;5104182;28;20076;-59
2024/03/09 01:20:10;;;;;;;3.78;0.70;;;23.10;48.90;;;;;;5110639;28;20064;-55
2024/03/09 01:22:37;;;;;;;3.97;0.90;;;23.10;49.30;;;;;;5108098;28;20143;-55
2024/03/09 01:25:08;;;;;;;3.03;1.00;;;23.00;49.60;;;;;;5101395;28;20186;-61
2024/03/09 01:27:35;;;;;;;3.75;1.05;;;22.90;49.00;;;;;;5107337;28;20064;-54
2024/03/09 01:30:05;;;;;;;4.68;1.20;;;22.80;48.60;;;;;;5107258;28;20080;-56
2024/03/09 01:32:32;;;;;;;2.22;0.90;;;22.70;49.30;;;;;;5108111;28;20087;-54
2024/03/09 01:34:58;;;;;;;3.83;0.95;;;22.70;49.40;;;;;;5102897;28;20064;-53
2024/03/09 01:37:25;;;;;;;3.88;0.95;;;22.60;49.20;;;;;;5109701;28;20068;-55
2024/03/09 01:39:51;;;;;;;6.57;0.93;;;22.50;49.10;;;;;;5106064;28;20068;-53
2024/03/09 01:42:21;;;;;;;3.88;1.50;;;22.40;49.10;;;;;;5106216;28;20205;-56
2024/03/09 01:44:49;;;;;;;23.65;20.88;;;22.30;48.80;;;;;;5097245;28;20092;-50
2024/03/09 01:47:22;;;;;;;27.05;19.88;;;22.30;49.00;;;;;;5103884;28;20079;-53
2024/03/09 01:49:51;;;;;;;8.82;2.10;;;22.20;49.30;;;;;;5109314;28;20067;-52
2024/03/09 01:52:17;;;;;;;13.32;1.52;;;22.10;49.10;;;;;;5108230;28;20492;-53
2024/03/09 01:54:47;;;;;;;8.15;1.55;;;22.00;49.50;;;;;;5101637;28;20510;-54
2024/03/09 01:57:14;;;;;;;13.60;2.00;;;21.90;49.20;;;;;;5098186;28;20077;-54
2024/03/09 01:59:46;;;;;;;10.07;2.08;;;21.90;49.50;;;;;;5094519;28;20076;-57
2024/03/09 02:02:15;;;;;;;11.90;1.80;;;21.70;49.50;;;;;;5096070;28;20077;-56
2024/03/09 02:04:44;;;;;;;18.85;1.98;;;21.70;50.10;;;;;;5101277;28;20109;-58
2024/03/09 02:07:14;;;;;;;9.07;3.63;;;21.60;50.30;;;;;;5100091;28;20176;-57
2024/03/09 02:09:40;;;;;;;19.90;1.90;;;21.50;50.40;;;;;;5107788;28;20100;-57
2024/03/09 02:12:08;;;;;;;17.10;2.22;;;21.40;50.90;;;;;;5109461;28;20176;-55
2024/03/09 02:14:36;;;;;;;5.72;1.67;;;21.40;51.40;;;;;;5101464;28;20069;-57
2024/03/09 02:17:09;;;;;;;8.88;1.95;;;21.30;50.30;;;;;;5095040;28;20072;-52
2024/03/09 02:19:38;;;;;;;10.15;2.00;;;21.20;50.80;;;;;;5107620;28;20072;-52
2024/03/09 02:22:06;;;;;;;11.38;1.90;;;21.10;50.60;;;;;;5107372;28;20509;-52
2024/03/09 02:24:40;;;;;;;16.80;1.98;;;21.00;51.40;;;;;;5106127;28;20067;-51
2024/03/09 02:27:07;;;;;;;12.30;2.83;;;20.90;51.80;;;;;;5108873;28;20112;-51
2024/03/09 02:29:34;;;;;;;19.88;2.53;;;20.90;52.00;;;;;;5107048;28;20088;-52
2024/03/09 02:32:01;;;;;;;24.17;3.00;;;20.80;52.40;;;;;;5108431;28;20431;-51
2024/03/09 02:34:28;;;;;;;34.80;4.10;;;20.70;52.40;;;;;;5101813;28;20076;-53
2024/03/09 02:36:54;;;;;;;29.98;4.10;;;20.60;53.30;;;;;;5095256;28;20436;-54
2024/03/09 02:39:23;;;;;;;52.00;4.50;;;20.50;53.80;;;;;;5098845;28;20061;-53
2024/03/09 02:41:49;;;;;;;25.85;3.90;;;20.40;54.20;;;;;;5099734;28;20075;-53
2024/03/09 02:44:17;;;;;;;29.08;3.40;;;20.30;54.10;;;;;;5108165;28;20072;-58
2024/03/09 02:46:44;;;;;;;24.27;4.25;;;20.30;53.50;;;;;;5107388;28;20112;-58
2024/03/09 02:49:10;;;;;;;20.92;3.80;;;20.20;53.50;;;;;;5102476;28;20080;-55
2024/03/09 02:51:37;;;;;;;19.75;3.63;;;20.10;53.60;;;;;;5106684;28;20064;-57
2024/03/09 02:54:04;;;;;;;23.15;3.72;;;20.10;54.30;;;;;;5097820;28;20570;-56
2024/03/09 02:56:31;;;;;;;27.05;4.03;;;20.00;54.30;;;;;;5092716;28;20098;-56
2024/03/09 02:58:58;;;;;;;23.55;4.32;;;19.90;54.20;;;;;;5107449;28;20068;-55
2024/03/09 03:01:26;;;;;;;41.00;5.70;;;19.90;53.90;;;;;;5091331;28;20068;-56
2024/03/09 03:04:00;;;;;;;35.65;14.15;;;19.80;54.20;;;;;;5102035;28;20523;-54
2024/03/09 03:06:29;;;;;;;56.90;12.13;;;19.90;53.90;;;;;;5099733;28;20103;-56
2024/03/09 03:11:57;;;;;;;20.65;5.78;;;19.80;54.50;;;;;;5094517;28;20114;-55
2024/03/09 03:14:25;;;;;;;46.75;20.50;;;19.60;54.50;;;;;;5103404;28;20463;-55
2024/03/09 03:16:54;;;;;;;33.30;6.85;;;19.60;55.20;;;;;;5109085;28;20095;-55
2024/03/09 03:19:21;;;;;;;27.55;6.25;;;19.50;55.50;;;;;;5107856;28;20108;-56
2024/03/09 03:21:47;;;;;;;34.78;7.25;;;19.40;56.00;;;;;;5107089;28;20160;-55
2024/03/09 03:24:14;;;;;;;29.73;7.22;;;19.30;56.00;;;;;;5105861;28;20082;-55
2024/03/09 03:26:40;;;;;;;39.15;7.57;;;19.30;56.00;;;;;;5110647;28;20304;-56
2024/03/09 03:29:07;;;;;;;32.97;7.32;;;19.20;56.20;;;;;;5113238;28;20068;-54
2024/03/09 03:31:36;;;;;;;23.08;6.75;;;19.10;57.40;;;;;;5108960;28;20109;-53
2024/03/09 03:34:02;;;;;;;34.33;7.78;;;19.10;56.20;;;;;;5110388;28;20180;-54
2024/03/09 03:36:31;;;;;;;37.33;8.00;;;19.10;56.00;;;;;;5110889;28;20159;-55
2024/03/09 03:38:58;;;;;;;44.13;9.45;;;19.10;56.10;;;;;;5106724;28;20072;-53
2024/03/09 03:41:26;;;;;;;35.53;8.25;;;19.00;56.60;;;;;;5111794;28;20071;-57
2024/03/09 03:43:54;;;;;;;37.67;8.98;;;18.90;58.00;;;;;;5109699;28;20076;-56
2024/03/09 03:46:21;;;;;;;43.22;8.40;;;18.90;58.00;;;;;;5109952;28;20096;-53
2024/03/09 03:48:47;;;;;;;33.40;8.52;;;18.80;57.80;;;;;;5103572;28;20072;-57
2024/03/09 03:51:15;;;;;;;42.05;8.40;;;18.70;57.80;;;;;;5110704;28;20085;-56
2024/03/09 03:53:43;;;;;;;38.92;8.75;;;18.70;58.60;;;;;;5099721;28;20126;-56
2024/03/09 03:56:10;;;;;;;40.05;8.43;;;18.60;58.60;;;;;;5112399;28;20068;-50
2024/03/09 03:58:37;;;;;;;34.60;8.38;;;18.50;59.10;;;;;;5096508;28;20448;-52
2024/03/09 04:01:05;;;;;;;26.75;8.70;;;18.40;59.60;;;;;;5102649;28;20095;-55
2024/03/09 04:03:31;;;;;;;33.13;8.35;;;18.30;59.30;;;;;;5110740;28;20155;-56
2024/03/09 04:06:02;;;;;;;38.25;8.65;;;18.20;59.60;;;;;;5112205;28;20179;-53
2024/03/09 04:08:29;;;;;;;37.25;9.05;;;18.20;59.90;;;;;;5110661;28;20068;-56
2024/03/09 04:10:56;;;;;;;45.53;8.48;;;18.20;59.50;;;;;;5107358;28;20091;-55
2024/03/09 04:13:23;;;;;;;36.05;7.75;;;18.10;59.50;;;;;;5111613;28;20068;-54
2024/03/09 04:15:52;;;;;;;39.70;9.90;;;18.10;59.70;;;;;;5099267;28;20080;-55
2024/03/09 04:18:21;;;;;;;41.15;8.15;;;18.00;60.60;;;;;;5101460;28;20108;-54
2024/03/09 04:20:48;;;;;;;53.00;10.70;;;18.00;60.50;;;;;;5109288;28;20120;-56
2024/03/09 04:23:17;;;;;;;48.55;10.75;;;18.00;62.40;;;;;;5094912;28;20065;-54
2024/03/09 04:25:50;;;;;;;49.83;10.63;;;17.90;61.90;;;;;;5104137;28;20096;-54
2024/03/09 04:28:20;;;;;;;47.88;9.73;;;17.80;61.80;;;;;;5111331;28;20072;-53
2024/03/09 04:30:48;;;;;;;50.55;10.30;;;17.80;63.20;;;;;;5098180;28;20072;-57
2024/03/09 04:33:15;;;;;;;54.53;9.93;;;17.80;61.90;;;;;;5107723;28;20080;-56
2024/03/09 04:35:47;;;;;;;53.70;10.55;;;17.80;61.90;;;;;;5111156;28;20125;-52
2024/03/09 04:38:15;;;;;;;47.08;10.85;;;17.70;61.30;;;;;;5110528;28;20099;-56
2024/03/09 04:40:48;;;;;;;56.80;12.23;;;17.80;61.50;;;;;;5110915;28;20117;-53
2024/03/09 04:43:15;;;;;;;66.15;11.38;;;17.80;61.40;;;;;;5104999;28;20080;-54
2024/03/09 04:45:42;;;;;;;73.78;12.77;;;17.70;63.00;;;;;;5111099;28;20461;-54
2024/03/09 04:48:09;;;;;;;56.88;13.23;;;17.60;62.90;;;;;;5110243;28;20110;-54
2024/03/09 04:50:38;;;;;;;64.82;14.88;;;17.50;62.60;;;;;;5111208;28;20076;-56
2024/03/09 04:53:06;;;;;;;48.97;14.57;;;17.60;62.50;;;;;;5110282;28;20103;-54
2024/03/09 04:55:32;;;;;;;86.13;15.93;;;17.50;63.30;;;;;;5110815;28;20474;-55
2024/03/09 04:57:59;;;;;;;63.25;15.18;;;17.50;63.80;;;;;;5110588;28;20068;-56
2024/03/09 05:00:29;;;;;;;55.75;14.35;;;17.40;65.00;;;;;;5104061;28;20077;-55
2024/03/09 05:02:55;;;;;;;49.15;13.32;;;17.50;63.20;;;;;;5100322;28;20425;-54
2024/03/09 05:05:22;;;;;;;74.60;15.15;;;17.40;62.60;;;;;;5109390;27;20120;-55
2024/03/09 05:07:50;;;;;;;44.95;12.88;;;17.30;63.20;;;;;;5108733;28;20120;-56
2024/03/09 05:10:19;;;;;;;55.10;12.85;;;17.20;63.80;;;;;;5104520;28;20564;-52
2024/03/09 05:12:56;;;;;;;45.50;13.38;;;17.20;63.80;;;;;;5103686;28;20075;-55
2024/03/09 05:15:29;;;;;;;59.63;15.15;;;17.10;65.30;;;;;;5103835;27;20433;-54
2024/03/09 05:18:00;;;;;;;58.20;14.27;;;17.10;64.70;;;;;;5100909;28;20072;-52
2024/03/09 05:20:28;;;;;;;68.03;16.30;;;17.10;64.50;;;;;;5107274;28;20704;-52
2024/03/09 05:22:57;;;;;;;71.20;16.05;;;17.10;64.50;;;;;;5106374;28;20107;-55
2024/03/09 05:25:23;;;;;;;77.93;18.50;;;17.10;65.10;;;;;;5102005;28;20136;-52
2024/03/09 05:27:54;;;;;;;78.47;20.40;;;16.90;65.90;;;;;;5107861;28;20115;-56
2024/03/09 05:30:27;;;;;;;76.40;21.42;;;17.00;65.30;;;;;;5102879;28;20163;-53
2024/03/09 05:32:54;;;;;;;74.00;26.08;;;16.90;66.20;;;;;;5107631;27;20092;-50
2024/03/09 05:35:22;;;;;;;82.85;28.50;;;16.90;65.80;;;;;;5100034;28;20114;-51
2024/03/09 05:37:51;;;;;;;84.85;27.55;;;16.80;66.40;;;;;;5105163;28;20411;-55
2024/03/09 05:40:20;;;;;;;88.88;26.70;;;16.80;67.00;;;;;;5103029;28;20099;-56
2024/03/09 05:42:48;;;;;;;66.25;27.30;;;16.90;67.20;;;;;;5103336;28;20120;-59
2024/03/09 05:45:18;;;;;;;93.30;30.63;;;16.80;67.50;;;;;;5102445;28;20561;-52
2024/03/09 05:47:50;;;;;;;113.55;47.47;;;16.80;66.70;;;;;;5101842;28;20072;-54
2024/03/09 05:50:17;;;;;;;166.38;63.25;;;16.80;66.60;;;;;;5105213;28;20080;-55
2024/03/09 05:52:48;;;;;;;258.50;77.15;;;16.70;67.80;;;;;;5105433;28;20113;-57
2024/03/09 05:55:22;;;;;;;286.30;76.97;;;16.70;67.50;;;;;;5101320;28;20070;-54
2024/03/09 05:57:49;;;;;;;196.55;63.55;;;16.70;67.90;;;;;;5104418;28;20060;-54
2024/03/09 06:00:36;;;;;;;228.32;67.90;;;16.70;67.60;;;;;;5108173;28;20112;-53
2024/03/09 06:03:03;;;;;;;250.02;69.63;;;16.70;67.70;;;;;;5102023;28;21330;-52
2024/03/09 06:05:30;;;;;;;218.20;63.50;;;16.60;67.70;;;;;;5104611;28;20619;-52
2024/03/09 06:07:57;;;;;;;209.48;60.20;;;16.60;68.20;;;;;;5104544;28;20068;-56
2024/03/09 06:10:24;;;;;;;170.23;55.53;;;16.60;69.10;;;;;;5102291;28;20065;-55
2024/03/09 06:12:52;;;;;;;153.30;53.13;;;16.60;68.80;;;;;;5101286;28;20571;-51
2024/03/09 06:15:20;;;;;;;148.38;51.33;;;16.60;69.90;;;;;;5105953;28;20072;-56
2024/03/09 06:17:48;;;;;;;141.10;47.35;;;16.50;69.60;;;;;;5101217;28;20075;-54
2024/03/09 06:20:17;;;;;;;163.07;50.22;;;16.50;69.20;;;;;;5104470;27;20454;-57
2024/03/09 06:22:47;;;;;;;137.88;48.15;;;16.50;69.20;;;;;;5102774;28;20072;-60
2024/03/09 06:25:25;;;;;;;154.27;44.92;;;16.30;68.90;;;;;;5102586;28;20076;-53
2024/03/09 06:27:53;;;;;;;127.40;42.30;;;16.30;69.30;;;;;;5102293;28;20143;-56
2024/03/09 06:30:22;;;;;;;122.07;40.95;;;16.30;69.00;;;;;;5106929;28;20103;-53
2024/03/09 06:32:49;;;;;;;150.75;38.05;;;16.30;68.80;;;;;;5105158;28;20104;-52
2024/03/09 06:35:20;;;;;;;110.07;35.35;;;16.20;70.50;;;;;;5106463;28;20078;-54
2024/03/09 06:37:59;;;;;;;108.70;33.80;;;16.20;69.30;;;;;;5100538;28;20072;-53
2024/03/09 06:40:31;;;;;;;121.68;31.52;;;16.10;68.70;;;;;;5099620;28;20068;-54
2024/03/09 06:42:58;;;;;;;102.95;27.10;;;16.20;68.70;;;;;;5100106;28;20531;-53
2024/03/09 06:45:26;;;;;;;96.05;25.75;;;16.20;68.10;;;;;;5100074;28;20091;-52
2024/03/09 06:47:53;;;;;;;98.65;24.88;;;16.20;67.30;;;;;;5106112;28;22926;-52
2024/03/09 06:50:20;;;;;;;74.38;21.70;;;16.20;67.00;;;;;;5105862;28;20075;-55
2024/03/09 06:52:46;;;;;;;76.35;20.67;;;16.20;66.60;;;;;;5097196;28;20095;-54
2024/03/09 06:55:14;;;;;;;73.43;19.25;;;16.10;65.70;;;;;;5104687;28;20173;-51
2024/03/09 06:57:41;;;;;;;70.55;18.35;;;16.10;65.70;;;;;;5105858;28;20379;-61
2024/03/09 07:00:14;;;;;;;72.35;19.95;;;16.10;65.60;;;;;;5104709;28;20072;-53
2024/03/09 07:02:44;;;;;;;55.45;19.50;;;16.10;66.30;;;;;;5107072;28;20125;-54
2024/03/09 07:05:11;;;;;;;54.03;17.33;;;16.10;67.50;;;;;;5106575;28;20072;-54
2024/03/09 07:07:39;;;;;;;45.80;16.65;;;16.10;66.80;;;;;;5106811;28;20064;-55
2024/03/09 07:10:10;;;;;;;60.47;17.15;;;16.10;67.10;;;;;;5109713;28;20089;-53
2024/03/09 07:12:40;;;;;;;69.88;17.15;;;16.00;67.30;;;;;;5111987;28;20094;-53
2024/03/09 07:15:22;;;;;;;57.55;16.98;;;16.00;67.00;;;;;;5111778;28;20118;-52
2024/03/09 07:17:55;;;;;;;46.22;18.15;;;15.90;65.90;;;;;;5110320;28;20522;-51
2024/03/09 07:20:27;;;;;;;49.15;14.38;;;15.80;66.10;;;;;;5108650;27;20126;-52
2024/03/09 07:22:54;;;;;;;40.00;18.38;;;15.80;65.30;;;;;;5109317;28;20083;-50
2024/03/09 07:25:25;;;;;;;34.00;10.70;;;15.90;65.40;;;;;;5111122;27;20096;-55
2024/03/09 07:27:56;;;;;;;29.90;8.55;;;15.90;65.60;;;;;;5102413;28;20522;-53
2024/03/09 07:30:24;;;;;;;30.58;10.00;;;15.90;66.00;;;;;;5109591;28;20072;-53
2024/03/09 07:32:50;;;;;;;31.38;10.13;;;15.80;66.00;;;;;;5110919;28;20068;-52
2024/03/09 07:35:19;;;;;;;29.80;9.32;;;15.90;65.90;;;;;;5107648;27;20656;-51
2024/03/09 07:37:59;;;;;;;26.95;9.00;;;15.90;65.70;;;;;;5106529;28;20082;-56
2024/03/09 07:40:25;;;;;;;21.73;10.43;;;15.90;66.20;;;;;;5108099;28;20141;-55
2024/03/09 07:42:55;;;;;;;17.25;6.25;;;15.90;64.30;;;;;;5107355;28;20069;-61
2024/03/09 07:45:25;;;;;;;19.35;5.90;;;16.00;63.80;;;;;;5104092;28;20140;-54
2024/03/09 07:47:52;;;;;;;19.38;4.50;;;16.10;62.90;;;;;;5109362;27;20068;-56
2024/03/09 07:50:21;;;;;;;16.73;3.53;;;16.20;62.40;;;;;;5105608;28;21468;-54
2024/03/09 07:52:49;;;;;;;13.00;3.40;;;16.30;61.10;;;;;;5106670;28;20125;-53
2024/03/09 07:55:17;;;;;;;8.30;2.97;;;16.50;60.70;;;;;;5107236;28;20230;-55
2024/03/09 07:58:10;;;;;;;14.85;3.55;;;16.50;60.50;;;;;;5104455;27;20518;-60
2024/03/09 08:00:36;;;;;;;13.80;3.60;;;16.50;60.70;;;;;;5108501;28;20099;-57
2024/03/09 08:03:03;;;;;;;13.80;3.70;;;16.60;61.20;;;;;;5110102;28;20068;-54
2024/03/09 08:05:30;;;;;;;15.20;3.33;;;16.50;61.50;;;;;;5106568;28;20209;-55
2024/03/09 08:07:57;;;;;;;16.35;3.10;;;16.40;62.20;;;;;;5109988;28;20074;-53
2024/03/09 08:10:27;;;;;;;13.05;2.67;;;16.30;62.20;;;;;;5104906;28;20092;-53
2024/03/09 08:12:56;;;;;;;11.15;2.50;;;16.20;61.90;;;;;;5100773;28;20072;-52
2024/03/09 08:15:22;;;;;;;6.82;2.13;;;16.30;61.50;;;;;;5103167;28;20131;-47
2024/03/09 08:17:49;;;;;;;6.85;2.05;;;16.60;61.00;;;;;;5102128;28;20514;-46
2024/03/09 08:20:20;;;;;;;7.50;2.38;;;17.00;60.60;;;;;;5109893;28;20068;-51
2024/03/09 08:22:47;;;;;;;11.52;2.20;;;17.20;59.60;;;;;;5109276;28;20052;-46
2024/03/09 08:25:17;;;;;;;4.47;1.40;;;17.20;59.50;;;;;;5107717;27;20092;-45
2024/03/09 08:27:46;;;;;;;3.65;1.35;;;17.40;59.50;;;;;;5102139;28;20090;-46
2024/03/09 08:30:17;;;;;;;5.85;1.50;;;17.60;59.20;;;;;;5104510;28;20148;-46
2024/03/09 08:32:50;;;;;;;8.52;1.55;;;17.60;59.00;;;;;;5102707;28;20068;-46
2024/03/09 08:35:19;;;;;;;4.28;1.45;;;17.70;59.00;;;;;;5103969;28;20549;-49
2024/03/09 08:37:46;;;;;;;4.43;1.65;;;17.90;59.40;;;;;;5106178;28;20433;-51
2024/03/09 08:40:17;;;;;;;11.55;1.92;;;18.30;59.10;;;;;;5105317;28;20593;-48
2024/03/09 08:42:48;;;;;;;16.08;2.17;;;18.40;58.50;;;;;;5099043;27;20530;-56
2024/03/09 08:45:15;;;;;;;11.27;1.88;;;18.60;58.90;;;;;;5102124;28;20125;-47
2024/03/09 08:47:42;;;;;;;4.45;1.40;;;18.60;58.50;;;;;;5102745;27;20159;-51
2024/03/09 08:50:12;;;;;;;9.30;1.60;;;18.50;59.20;;;;;;5104322;28;20103;-49
2024/03/09 08:52:42;;;;;;;7.07;1.65;;;18.40;58.80;;;;;;5105537;28;20072;-50
2024/03/09 08:55:13;;;;;;;13.43;1.60;;;18.30;59.00;;;;;;5102359;28;20085;-46
2024/03/09 08:57:42;;;;;;;6.28;1.10;;;18.20;58.60;;;;;;5108205;28;20130;-49
2024/03/09 09:00:09;;;;;;;5.47;1.33;;;18.00;58.50;;;;;;5106034;28;20099;-50
2024/03/09 09:02:40;;;;;;;8.27;1.50;;;17.70;58.60;;;;;;5101294;28;20068;-47
2024/03/09 09:05:18;;;;;;;8.63;1.40;;;17.50;58.90;;;;;;5105539;28;20141;-51
2024/03/09 09:07:46;;;;;;;7.97;1.40;;;17.50;60.10;;;;;;5105032;28;20345;-48
2024/03/09 09:10:17;;;;;;;7.60;1.45;;;17.60;60.10;;;;;;5103190;28;20071;-48
2024/03/09 09:12:46;;;;;;;3.75;1.40;;;17.60;60.20;;;;;;5100184;28;20553;-46
2024/03/09 09:15:16;;;;;;;7.57;1.23;;;17.60;60.10;;;;;;5103215;28;20578;-47
2024/03/09 09:17:43;;;;;;;7.88;1.70;;;17.50;60.20;;;;;;5103766;28;20091;-46
2024/03/09 09:20:11;;;;;;;5.80;1.45;;;17.40;60.00;;;;;;5101357;28;20071;-48
2024/03/09 09:22:48;;;;;;;6.55;1.42;;;17.20;60.60;;;;;;5106256;28;20150;-47
2024/03/09 09:25:16;;;;;;;3.60;1.42;;;17.30;61.50;;;;;;5102635;28;20106;-47
2024/03/09 09:27:45;;;;;;;10.63;1.77;;;17.30;60.90;;;;;;5106638;28;20098;-48
2024/03/09 09:30:12;;;;;;;14.55;1.83;;;17.20;61.20;;;;;;5106330;28;20075;-51
2024/03/09 09:32:40;;;;;;;5.53;1.42;;;17.40;60.90;;;;;;5105541;27;20068;-47
2024/03/09 09:35:08;;;;;;;6.30;1.50;;;17.30;61.10;;;;;;5106346;28;20430;-46
2024/03/09 09:37:34;;;;;;;7.05;1.63;;;17.20;61.20;;;;;;5106126;28;20094;-47
2024/03/09 09:40:01;;;;;;;10.35;2.10;;;17.00;61.90;;;;;;5104741;28;20117;-47
2024/03/09 09:42:32;;;;;;;8.82;1.60;;;17.00;62.30;;;;;;5109662;27;20074;-50
2024/03/09 09:44:59;;;;;;;5.20;1.63;;;17.00;62.00;;;;;;5104837;28;20064;-47
2024/03/09 09:47:26;;;;;;;8.95;1.70;;;16.90;62.30;;;;;;5105115;28;20100;-47
2024/03/09 09:49:57;;;;;;;15.10;2.10;;;16.70;63.40;;;;;;5104106;28;20110;-47
2024/03/09 09:52:26;;;;;;;35.33;17.98;;;16.60;63.00;;;;;;5105894;28;20072;-49
2024/03/09 09:54:58;;;;;;;10.43;2.17;;;16.60;63.60;;;;;;5103517;28;20107;-48
2024/03/09 09:57:25;;;;;;;14.70;2.22;;;16.50;64.00;;;;;;5107748;28;20171;-48
2024/03/09 09:59:51;;;;;;;10.82;2.35;;;16.30;64.80;;;;;;5102690;28;20147;-46
2024/03/09 10:02:21;;;;;;;13.75;1.92;;;16.30;64.60;;;;;;5104491;28;20070;-46
2024/03/09 10:04:52;;;;;;;11.40;2.28;;;16.30;64.80;;;;;;5108052;28;20068;-47
2024/03/09 10:07:19;;;;;;;6.78;2.08;;;16.20;64.10;;;;;;5106260;28;20106;-49
2024/03/09 10:09:47;;;;;;;11.98;2.70;;;16.00;63.80;;;;;;5108675;27;20064;-46
2024/03/09 10:12:23;;;;;;;15.98;2.78;;;16.00;64.40;;;;;;5104038;28;20072;-46
2024/03/09 10:14:49;;;;;;;10.77;3.50;;;16.00;64.10;;;;;;5101384;28;20068;-48
2024/03/09 10:17:19;;;;;;;6.70;2.03;;;16.00;64.30;;;;;;5104326;28;20076;-46
2024/03/09 10:19:47;;;;;;;14.30;2.60;;;16.10;64.10;;;;;;5105672;28;20082;-46
2024/03/09 10:22:13;;;;;;;6.78;2.20;;;16.10;63.70;;;;;;5107494;28;20124;-47
2024/03/09 10:24:53;;;;;;;11.15;2.30;;;16.20;63.50;;;;;;5106844;28;20079;-46
2024/03/09 10:27:21;;;;;;;9.82;1.92;;;16.20;63.80;;;;;;5108338;28;20158;-46
2024/03/09 10:29:48;;;;;;;9.98;2.15;;;16.20;64.20;;;;;;5106960;28;20083;-46
2024/03/09 10:32:14;;;;;;;14.32;2.45;;;16.00;64.60;;;;;;5104904;28;20072;-46
2024/03/09 10:34:42;;;;;;;12.05;2.72;;;15.80;65.60;;;;;;5101946;28;20076;-49
2024/03/09 10:37:17;;;;;;;12.15;2.45;;;15.80;65.30;;;;;;5106325;28;20099;-46
2024/03/09 10:39:43;;;;;;;13.63;2.15;;;15.70;65.70;;;;;;5107558;28;20072;-48
2024/03/09 10:42:15;;;;;;;11.40;2.08;;;15.70;66.20;;;;;;5104307;28;20089;-48
2024/03/09 10:44:42;;;;;;;5.90;2.20;;;15.60;66.20;;;;;;5105047;28;20112;-46
2024/03/09 10:47:12;;;;;;;9.70;2.63;;;15.60;66.20;;;;;;5108383;28;20107;-47
2024/03/09 10:49:44;;;;;;;15.10;2.25;;;15.60;66.70;;;;;;5107376;28;20097;-45
2024/03/09 10:52:14;;;;;;;14.18;2.30;;;15.30;67.80;;;;;;5105925;28;20076;-49
2024/03/09 10:55:07;;;;;;;11.80;2.20;;;15.20;67.50;;;;;;5105481;28;20075;-47
2024/03/09 10:57:33;;;;;;;10.15;1.98;;;15.30;67.90;;;;;;5104047;28;20129;-48
2024/03/09 11:00:00;;;;;;;13.80;2.08;;;15.40;67.20;;;;;;5107103;28;20079;-46
2024/03/09 11:02:27;;;;;;;8.77;2.10;;;15.30;67.20;;;;;;5106512;28;20070;-46
2024/03/09 11:04:55;;;;;;;10.77;2.00;;;15.40;67.10;;;;;;5104410;28;20488;-47
2024/03/09 11:07:22;;;;;;;16.42;2.30;;;15.20;67.10;;;;;;5108431;28;20123;-47
2024/03/09 11:09:50;;;;;;;11.77;2.45;;;15.00;68.40;;;;;;5107534;28;20090;-48
2024/03/09 11:12:19;;;;;;;14.45;2.88;;;15.10;68.10;;;;;;5113160;28;20102;-48
2024/03/09 11:14:52;;;;;;;50.65;23.42;;;15.10;67.80;;;;;;5106263;28;20167;-47
2024/03/09 11:17:23;;;;;;;53.25;30.77;;;15.10;67.70;;;;;;5106290;28;20079;-47
2024/03/09 11:19:50;;;;;;;41.75;19.48;;;15.10;67.80;;;;;;5107340;28;20514;-46
2024/03/09 11:22:41;;;;;;;26.95;11.02;;;15.10;68.20;;;;;;5105569;28;20108;-46
2024/03/09 11:25:12;;;;;;;24.02;10.18;;;15.00;69.40;;;;;;5098932;28;20134;-46
2024/03/09 11:27:39;;;;;;;19.15;6.80;;;15.00;69.70;;;;;;5105830;28;20068;-46
2024/03/09 11:30:08;;;;;;;18.95;6.45;;;15.00;69.60;;;;;;5106826;28;20155;-46
2024/03/09 11:32:38;;;;;;;14.65;5.60;;;14.90;69.40;;;;;;5106350;27;20068;-46
2024/03/09 11:35:26;;;;;;;21.65;5.05;;;14.90;69.20;;;;;;5106465;28;20060;-49
2024/03/09 11:37:52;;;;;;;19.83;5.07;;;14.90;69.40;;;;;;5105164;28;20068;-47
2024/03/09 11:40:19;;;;;;;19.40;4.20;;;14.80;70.90;;;;;;5107870;28;20108;-46
2024/03/09 11:42:45;;;;;;;19.15;4.40;;;14.70;71.30;;;;;;5105442;28;20080;-47
2024/03/09 11:45:18;;;;;;;20.23;4.03;;;14.70;71.20;;;;;;5105033;28;20487;-49
2024/03/09 11:47:45;;;;;;;29.65;4.70;;;14.70;70.50;;;;;;5105306;28;20064;-46
2024/03/09 11:50:12;;;;;;;13.57;3.75;;;14.40;70.90;;;;;;5105813;28;20136;-49
2024/03/09 11:52:39;;;;;;;18.77;3.55;;;14.40;71.40;;;;;;5104910;28;20076;-47
2024/03/09 11:55:07;;;;;;;11.50;3.30;;;14.40;72.00;;;;;;5109046;28;20079;-47
2024/03/09 11:57:38;;;;;;;14.05;3.53;;;14.50;72.60;;;;;;5108130;28;20067;-46
2024/03/09 12:00:08;;;;;;;15.45;3.28;;;14.40;71.80;;;;;;5110552;28;20151;-46
2024/03/09 12:02:38;;;;;;;17.77;3.40;;;14.30;72.40;;;;;;5108310;28;20091;-46
2024/03/09 12:05:18;;;;;;;15.20;3.50;;;14.40;72.10;;;;;;5108945;28;20076;-47
2024/03/09 12:07:47;;;;;;;14.65;3.33;;;14.40;72.20;;;;;;5104102;28;20083;-46
2024/03/09 12:10:14;;;;;;;15.68;4.22;;;14.50;72.20;;;;;;5108087;28;20552;-49
2024/03/09 12:12:44;;;;;;;18.20;3.70;;;14.30;72.70;;;;;;5106200;28;20072;-48
2024/03/09 12:15:11;;;;;;;9.77;3.20;;;14.20;73.00;;;;;;5108649;27;20069;-49
2024/03/09 12:17:42;;;;;;;15.38;3.95;;;14.10;72.60;;;;;;5108706;27;20080;-49
2024/03/09 12:20:13;;;;;;;11.55;3.67;;;13.90;73.90;;;;;;5106856;28;20186;-50
2024/03/09 12:22:40;;;;;;;12.13;3.53;;;13.80;74.40;;;;;;5108313;28;20064;-48
2024/03/09 12:25:10;;;;;;;16.65;4.35;;;13.80;73.70;;;;;;5109131;28;20160;-47
2024/03/09 12:27:37;;;;;;;14.52;4.75;;;13.80;73.20;;;;;;5109411;27;20080;-46
2024/03/09 12:30:11;;;;;;;13.45;4.00;;;13.80;73.00;;;;;;5107677;28;20194;-47
2024/03/09 12:32:38;;;;;;;12.73;3.90;;;13.80;72.50;;;;;;5105440;28;20064;-45
2024/03/09 12:35:05;;;;;;;12.65;3.38;;;14.00;72.60;;;;;;5102264;28;20848;-48
2024/03/09 12:37:35;;;;;;;10.27;3.20;;;14.10;72.10;;;;;;5105979;28;20537;-47
2024/03/09 12:40:18;;;;;;;10.98;3.40;;;14.20;71.30;;;;;;5110819;28;20064;-48
2024/03/09 12:42:53;;;;;;;15.13;3.65;;;14.20;71.70;;;;;;5108866;28;20095;-48
2024/03/09 12:45:22;;;;;;;11.68;3.08;;;14.20;71.90;;;;;;5107151;28;20091;-47
2024/03/09 12:47:54;;;;;;;15.75;5.45;;;14.20;72.10;;;;;;5107396;28;20100;-48